createdAt,value
2022-10-19T00:00:06.786Z,10.87
2022-10-19T00:02:08.434Z,10.87
2022-10-19T00:04:10.085Z,10.91
2022-10-19T00:06:15.018Z,10.89
2022-10-19T00:08:16.540Z,10.97
2022-10-19T00:10:18.271Z,10.92
2022-10-19T00:12:19.793Z,10.90
2022-10-19T00:14:23.930Z,10.88
2022-10-19T00:16:27.290Z,10.95
2022-10-19T00:18:28.962Z,10.86
2022-10-19T00:20:30.467Z,10.80
2022-10-19T00:22:32.320Z,10.86
2022-10-19T00:24:34.160Z,10.81
2022-10-19T00:26:35.938Z,10.91
2022-10-19T00:28:37.947Z,10.91
2022-10-19T00:30:40.901Z,10.92
2022-10-19T00:32:42.629Z,10.92
2022-10-19T00:34:44.187Z,10.87
2022-10-19T00:36:45.676Z,10.88
2022-10-19T00:38:47.297Z,10.89
2022-10-19T00:40:49.347Z,10.93
2022-10-19T00:42:54.592Z,10.95
2022-10-19T00:45:02.210Z,10.91
2022-10-19T00:47:07.297Z,10.90
2022-10-19T00:49:12.853Z,10.81
2022-10-19T00:51:14.683Z,10.92
2022-10-19T00:53:16.788Z,10.88
2022-10-19T00:55:18.687Z,10.90
2022-10-19T00:57:22.711Z,10.86
2022-10-19T00:59:24.990Z,10.84
2022-10-19T01:01:28.723Z,10.84
2022-10-19T01:03:32.425Z,10.90
2022-10-19T01:05:35.062Z,10.91
2022-10-19T01:07:36.819Z,10.90
2022-10-19T01:09:38.601Z,11.00
2022-10-19T01:11:51.275Z,11.07
2022-10-19T01:14:04.521Z,10.96
2022-10-19T01:16:16.411Z,11.01
2022-10-19T01:18:22.103Z,10.92
2022-10-19T01:20:57.032Z,10.86
2022-10-19T01:23:12.966Z,11.07
2022-10-19T01:25:22.770Z,10.98
2022-10-19T01:27:41.062Z,10.91
2022-10-19T01:30:03.186Z,10.94
2022-10-19T01:32:09.735Z,10.93
2022-10-19T01:34:17.691Z,10.99
2022-10-19T01:36:28.882Z,10.90
2022-10-19T01:38:37.668Z,10.94
2022-10-19T01:40:46.339Z,11.04
2022-10-19T01:42:57.644Z,11.05
2022-10-19T01:45:05.864Z,10.97
2022-10-19T01:47:11.206Z,10.86
2022-10-19T01:49:23.843Z,10.82
2022-10-19T01:51:30.889Z,10.77
2022-10-19T01:53:38.274Z,10.62
2022-10-19T01:55:44.397Z,10.66
2022-10-19T01:57:48.744Z,10.72
2022-10-19T01:59:50.984Z,10.65
2022-10-19T02:01:55.437Z,10.62
2022-10-19T02:03:57.897Z,10.63
2022-10-19T02:05:59.926Z,10.58
2022-10-19T02:08:06.347Z,10.61
2022-10-19T02:10:08.653Z,10.55
2022-10-19T02:12:12.113Z,10.64
2022-10-19T02:14:16.901Z,10.75
2022-10-19T02:16:23.721Z,10.69
2022-10-19T02:18:31.267Z,10.64
2022-10-19T02:20:35.477Z,10.61
2022-10-19T02:22:37.355Z,10.57
2022-10-19T02:24:38.938Z,10.59
2022-10-19T02:26:41.528Z,10.62
2022-10-19T02:28:43.165Z,10.64
2022-10-19T02:30:44.810Z,10.60
2022-10-19T02:32:46.417Z,10.66
2022-10-19T02:34:49.505Z,10.65
2022-10-19T02:36:51.123Z,10.73
2022-10-19T02:38:52.868Z,10.74
2022-10-19T02:41:02.920Z,10.77
2022-10-19T02:43:12.947Z,10.85
2022-10-19T02:45:21.677Z,10.85
2022-10-19T02:47:27.378Z,10.91
2022-10-19T02:49:29.916Z,10.90
2022-10-19T02:51:34.653Z,10.77
2022-10-19T02:53:36.145Z,10.75
2022-10-19T02:55:38.050Z,10.86
2022-10-19T02:57:39.705Z,10.92
2022-10-19T02:59:41.261Z,10.96
2022-10-19T03:01:42.749Z,10.91
2022-10-19T03:03:44.355Z,10.89
2022-10-19T03:05:45.854Z,10.70
2022-10-19T03:07:48.758Z,10.81
2022-10-19T03:09:50.984Z,10.84
2022-10-19T03:11:52.580Z,10.86
2022-10-19T03:13:54.098Z,10.85
2022-10-19T03:15:55.619Z,10.89
2022-10-19T03:17:57.276Z,10.90
2022-10-19T03:19:58.824Z,10.89
2022-10-19T03:22:00.348Z,10.85
2022-10-19T03:24:06.227Z,10.91
2022-10-19T03:26:11.505Z,11.00
2022-10-19T03:28:13.887Z,11.00
2022-10-19T03:30:15.625Z,10.96
2022-10-19T03:32:17.107Z,10.98
2022-10-19T03:34:18.900Z,11.00
2022-10-19T03:36:22.417Z,10.96
2022-10-19T03:38:23.911Z,11.05
2022-10-19T03:40:26.774Z,11.06
2022-10-19T03:42:28.292Z,11.06
2022-10-19T03:44:29.791Z,10.98
2022-10-19T03:46:32.164Z,11.04
2022-10-19T03:48:33.857Z,10.94
2022-10-19T03:50:35.350Z,10.92
2022-10-19T03:52:36.896Z,10.94
2022-10-19T03:54:38.596Z,10.88
2022-10-19T03:56:42.458Z,10.83
2022-10-19T03:58:46.317Z,10.88
2022-10-19T04:00:47.815Z,10.88
2022-10-19T04:02:49.388Z,10.95
2022-10-19T04:04:50.932Z,10.95
2022-10-19T04:06:52.467Z,10.89
2022-10-19T04:08:54.645Z,10.96
2022-10-19T04:10:59.576Z,11.01
2022-10-19T04:13:02.456Z,11.00
2022-10-19T04:15:04.468Z,10.99
2022-10-19T04:17:06.497Z,10.99
2022-10-19T04:19:08.577Z,11.09
2022-10-19T04:21:21.533Z,10.98
2022-10-19T04:23:23.680Z,11.06
2022-10-19T04:25:25.159Z,10.99
2022-10-19T04:27:26.998Z,10.90
2022-10-19T04:29:30.910Z,10.93
2022-10-19T04:31:32.434Z,11.01
2022-10-19T04:33:34.901Z,10.95
2022-10-19T04:35:36.450Z,10.89
2022-10-19T04:37:37.941Z,10.82
2022-10-19T04:39:39.663Z,10.85
2022-10-19T04:41:41.210Z,10.88
2022-10-19T04:43:43.018Z,10.72
2022-10-19T04:45:45.870Z,10.80
2022-10-19T04:47:47.344Z,10.99
2022-10-19T04:49:48.811Z,10.96
2022-10-19T04:51:50.338Z,10.89
2022-10-19T04:53:53.410Z,10.97
2022-10-19T04:55:57.258Z,10.96
2022-10-19T04:57:58.731Z,10.95
2022-10-19T05:00:00.282Z,10.97
2022-10-19T05:02:03.234Z,10.98
2022-10-19T05:04:04.747Z,11.01
2022-10-19T05:06:07.044Z,10.98
2022-10-19T05:08:09.594Z,10.94
2022-10-19T05:10:13.667Z,10.96
2022-10-19T05:12:15.335Z,10.92
2022-10-19T05:14:16.977Z,10.94
2022-10-19T05:16:20.604Z,10.97
2022-10-19T05:18:23.545Z,10.95
2022-10-19T05:20:25.202Z,10.94
2022-10-19T05:22:26.699Z,10.98
2022-10-19T05:24:28.295Z,11.00
2022-10-19T05:26:29.816Z,11.01
2022-10-19T05:28:32.249Z,11.04
2022-10-19T05:30:33.805Z,11.11
2022-10-19T05:32:35.572Z,11.21
2022-10-19T05:34:38.378Z,11.46
2022-10-19T05:36:40.356Z,11.33
2022-10-19T05:38:42.419Z,11.24
2022-10-19T05:40:51.535Z,11.52
2022-10-19T05:42:55.265Z,11.46
2022-10-19T05:44:56.790Z,11.39
2022-10-19T05:46:58.280Z,11.20
2022-10-19T05:49:00.419Z,11.16
2022-10-19T05:51:04.490Z,11.11
2022-10-19T05:53:05.967Z,10.96
2022-10-19T05:55:08.553Z,10.95
2022-10-19T05:57:10.168Z,10.87
2022-10-19T05:59:19.094Z,10.87
2022-10-19T06:01:20.630Z,10.98
2022-10-19T06:03:22.717Z,10.96
2022-10-19T06:05:24.254Z,10.91
2022-10-19T06:07:27.194Z,10.93
2022-10-19T06:09:28.684Z,10.97
2022-10-19T06:11:32.322Z,11.04
2022-10-19T06:13:34.145Z,11.07
2022-10-19T06:15:35.744Z,11.01
2022-10-19T06:17:37.267Z,11.09
2022-10-19T06:19:38.825Z,11.22
2022-10-19T06:21:43.280Z,11.05
2022-10-19T06:23:51.575Z,11.01
2022-10-19T06:25:53.141Z,10.99
2022-10-19T06:27:54.774Z,10.81
2022-10-19T06:29:56.240Z,10.89
2022-10-19T06:31:57.813Z,10.88
2022-10-19T06:33:59.561Z,10.91
2022-10-19T06:36:05.647Z,10.83
2022-10-19T06:38:07.128Z,10.90
2022-10-19T06:40:11.382Z,10.93
2022-10-19T06:42:12.888Z,10.94
2022-10-19T06:44:14.416Z,10.94
2022-10-19T06:46:16.961Z,10.94
2022-10-19T06:48:18.545Z,10.73
2022-10-19T06:50:20.106Z,10.90
2022-10-19T06:52:21.656Z,10.86
2022-10-19T06:54:23.153Z,10.92
2022-10-19T06:56:26.636Z,10.97
2022-10-19T06:58:28.708Z,10.91
2022-10-19T07:00:31.053Z,10.95
2022-10-19T07:02:33.403Z,10.84
2022-10-19T07:04:34.863Z,10.95
2022-10-19T07:06:36.402Z,10.87
2022-10-19T07:08:39.514Z,11.05
2022-10-19T07:10:41.038Z,11.13
2022-10-19T07:12:43.678Z,11.18
2022-10-19T07:14:45.358Z,11.27
2022-10-19T07:16:49.311Z,11.24
2022-10-19T07:18:52.672Z,11.16
2022-10-19T07:20:55.816Z,11.22
2022-10-19T07:22:57.294Z,11.20
2022-10-19T07:24:58.800Z,11.31
2022-10-19T07:27:00.455Z,11.41
2022-10-19T07:29:04.237Z,11.45
2022-10-19T07:31:07.279Z,11.46
2022-10-19T07:33:08.851Z,11.46
2022-10-19T07:35:10.381Z,11.43
2022-10-19T07:37:11.854Z,11.55
2022-10-19T07:39:14.183Z,11.58
2022-10-19T07:41:17.813Z,11.56
2022-10-19T07:43:19.279Z,11.63
2022-10-19T07:45:22.104Z,11.69
2022-10-19T07:47:23.590Z,11.62
2022-10-19T07:49:25.245Z,11.61
2022-10-19T07:51:26.776Z,11.66
2022-10-19T07:53:28.634Z,11.65
2022-10-19T07:55:30.115Z,11.66
2022-10-19T07:57:31.634Z,11.79
2022-10-19T07:59:34.166Z,11.97
2022-10-19T08:01:40.090Z,11.94
2022-10-19T08:04:48.579Z,11.94
2022-10-19T08:06:05.400Z,12.11
2022-10-19T08:08:06.971Z,12.20
2022-10-19T08:10:09.318Z,12.19
2022-10-19T08:12:14.883Z,12.13
2022-10-19T08:14:17.218Z,12.05
2022-10-19T08:16:23.209Z,12.14
2022-10-19T08:18:26.086Z,12.13
2022-10-19T08:20:27.615Z,12.17
2022-10-19T08:22:29.085Z,12.16
2022-10-19T08:24:30.836Z,12.17
2022-10-19T08:26:35.003Z,12.16
2022-10-19T08:28:36.570Z,12.17
2022-10-19T08:30:38.013Z,12.08
2022-10-19T08:32:39.643Z,12.04
2022-10-19T08:34:42.758Z,11.82
2022-10-19T08:36:44.496Z,11.88
2022-10-19T08:38:46.286Z,11.95
2022-10-19T08:40:47.867Z,11.95
2022-10-19T08:42:57.961Z,12.10
2022-10-19T08:45:25.707Z,12.21
2022-10-19T08:47:46.957Z,12.14
2022-10-19T08:49:50.057Z,12.09
2022-10-19T08:51:56.028Z,12.20
2022-10-19T08:54:00.361Z,12.29
2022-10-19T08:56:26.997Z,12.39
2022-10-19T08:58:45.575Z,12.32
2022-10-19T09:00:53.235Z,12.53
2022-10-19T09:02:59.127Z,12.53
2022-10-19T09:05:13.549Z,12.57
2022-10-19T09:07:25.554Z,12.72
2022-10-19T09:09:29.901Z,12.64
2022-10-19T09:11:35.345Z,12.65
2022-10-19T09:14:00.513Z,12.58
2022-10-19T09:16:04.041Z,12.52
2022-10-19T09:18:10.509Z,12.36
2022-10-19T09:20:19.552Z,12.46
2022-10-19T09:22:27.492Z,12.56
2022-10-19T09:24:36.756Z,12.49
2022-10-19T09:26:46.963Z,12.64
2022-10-19T09:28:53.894Z,12.81
2022-10-19T09:30:58.312Z,12.87
2022-10-19T09:33:01.042Z,12.93
2022-10-19T09:35:06.224Z,13.05
2022-10-19T09:37:17.822Z,13.05
2022-10-19T09:39:27.068Z,12.85
2022-10-19T09:41:31.252Z,12.73
2022-10-19T09:43:33.246Z,12.71
2022-10-19T09:45:40.151Z,12.75
2022-10-19T09:47:45.748Z,12.73
2022-10-19T09:49:49.035Z,12.87
2022-10-19T09:51:52.747Z,12.99
2022-10-19T09:53:56.034Z,12.94
2022-10-19T09:56:00.078Z,12.83
2022-10-19T09:58:05.312Z,12.98
2022-10-19T10:00:07.406Z,12.99
2022-10-19T10:02:16.101Z,13.01
2022-10-19T10:04:18.373Z,12.94
2022-10-19T10:06:22.206Z,12.98
2022-10-19T10:08:26.546Z,12.88
2022-10-19T10:10:31.362Z,12.82
2022-10-19T10:12:35.111Z,12.75
2022-10-19T10:14:37.177Z,12.83
2022-10-19T10:18:56.615Z,12.89
2022-10-19T10:21:01.853Z,13.03
2022-10-19T10:23:05.992Z,13.20
2022-10-19T10:25:13.605Z,13.11
2022-10-19T10:27:29.517Z,13.12
2022-10-19T10:29:32.968Z,13.13
2022-10-19T10:31:35.297Z,13.08
2022-10-19T10:33:45.027Z,12.94
2022-10-19T10:35:49.339Z,12.92
2022-10-19T10:37:51.719Z,12.87
2022-10-19T10:39:56.617Z,12.98
2022-10-19T10:42:09.767Z,13.06
2022-10-19T10:44:19.459Z,13.18
2022-10-19T10:46:24.425Z,13.20
2022-10-19T10:48:30.237Z,13.22
2022-10-19T10:50:35.817Z,13.18
2022-10-19T10:52:38.082Z,13.27
2022-10-19T10:54:40.390Z,13.52
2022-10-19T10:56:43.319Z,13.61
2022-10-19T10:58:50.034Z,13.57
2022-10-19T11:00:53.556Z,13.43
2022-10-19T11:03:00.757Z,13.44
2022-10-19T11:05:07.256Z,13.27
2022-10-19T11:07:18.076Z,13.06
2022-10-19T11:09:26.179Z,12.94
2022-10-19T11:11:32.264Z,13.11
2022-10-19T11:13:41.106Z,13.17
2022-10-19T11:15:52.231Z,13.41
2022-10-19T11:18:04.118Z,13.71
2022-10-19T11:20:07.436Z,14.10
2022-10-19T11:22:22.292Z,14.17
2022-10-19T11:24:35.244Z,14.11
2022-10-19T11:26:50.302Z,13.96
2022-10-19T11:29:06.298Z,13.70
2022-10-19T11:31:16.345Z,13.76
2022-10-19T11:33:36.720Z,13.59
2022-10-19T11:35:44.000Z,13.40
2022-10-19T11:38:17.385Z,12.97
2022-10-19T11:40:23.029Z,12.98
2022-10-19T11:42:37.508Z,13.32
2022-10-19T11:44:50.246Z,13.41
2022-10-19T11:47:16.725Z,13.53
2022-10-19T11:49:31.428Z,13.80
2022-10-19T11:51:39.437Z,14.00
2022-10-19T11:53:52.088Z,14.15
2022-10-19T11:56:00.161Z,14.27
2022-10-19T11:58:14.675Z,14.39
2022-10-19T12:00:39.364Z,14.64
2022-10-19T12:03:09.571Z,14.61
2022-10-19T12:05:17.348Z,14.74
2022-10-19T12:07:34.968Z,14.69
2022-10-19T12:09:47.564Z,14.44
2022-10-19T12:12:02.261Z,14.48
2022-10-19T12:14:08.149Z,14.39
2022-10-19T12:16:13.191Z,14.11
2022-10-19T12:18:29.525Z,14.00
2022-10-19T12:20:37.329Z,13.81
2022-10-19T12:22:40.127Z,13.63
2022-10-19T12:24:41.774Z,13.91
2022-10-19T12:26:44.929Z,14.09
2022-10-19T12:28:49.882Z,14.30
2022-10-19T12:30:53.149Z,14.19
2022-10-19T12:33:16.388Z,14.01
2022-10-19T12:35:28.444Z,14.08
2022-10-19T12:37:38.031Z,13.84
2022-10-19T12:39:45.743Z,13.83
2022-10-19T12:41:51.854Z,13.88
2022-10-19T12:44:11.972Z,13.74
2022-10-19T12:46:21.936Z,13.98
2022-10-19T12:48:23.856Z,13.85
2022-10-19T12:51:12.188Z,13.86
2022-10-19T12:53:23.463Z,13.83
2022-10-19T12:55:28.521Z,14.09
2022-10-19T12:57:30.447Z,14.04
2022-10-19T12:59:34.038Z,13.91
2022-10-19T13:01:44.059Z,13.76
2022-10-19T13:03:45.765Z,13.60
2022-10-19T13:05:56.617Z,13.52
2022-10-19T13:08:01.313Z,13.67
2022-10-19T13:10:07.150Z,13.82
2022-10-19T13:12:29.525Z,13.77
2022-10-19T13:14:44.809Z,13.80
2022-10-19T13:17:01.698Z,13.96
2022-10-19T13:19:17.443Z,13.87
2022-10-19T13:21:43.199Z,13.90
2022-10-19T13:23:45.252Z,14.11
2022-10-19T13:26:24.540Z,14.21
2022-10-19T13:28:37.376Z,14.44
2022-10-19T13:31:09.341Z,14.48
2022-10-19T13:33:47.939Z,14.49
2022-10-19T13:35:49.568Z,14.53
2022-10-19T13:38:20.350Z,14.39
2022-10-19T13:40:24.660Z,14.56
2022-10-19T13:42:28.163Z,14.42
2022-10-19T13:44:33.399Z,14.52
2022-10-19T13:46:47.637Z,14.69
2022-10-19T13:49:32.653Z,14.67
2022-10-19T13:51:45.055Z,14.43
2022-10-19T13:53:54.080Z,14.42
2022-10-19T13:56:16.872Z,14.15
2022-10-19T13:58:40.311Z,14.02
2022-10-19T14:00:59.200Z,13.96
2022-10-19T14:03:11.766Z,13.96
2022-10-19T14:05:44.838Z,14.01
2022-10-19T14:07:57.648Z,13.90
2022-10-19T14:10:07.823Z,13.90
2022-10-19T14:12:18.992Z,13.82
2022-10-19T14:14:23.739Z,13.71
2022-10-19T14:16:25.301Z,13.73
2022-10-19T14:18:29.454Z,13.67
2022-10-19T14:20:33.890Z,13.59
2022-10-19T14:22:36.398Z,13.57
2022-10-19T14:24:37.858Z,13.61
2022-10-19T14:26:39.429Z,13.47
2022-10-19T14:28:42.078Z,13.49
2022-10-19T14:30:53.824Z,13.58
2022-10-19T14:32:59.408Z,13.51
2022-10-19T14:35:15.770Z,13.44
2022-10-19T14:37:19.741Z,13.46
2022-10-19T14:39:29.215Z,13.49
2022-10-19T14:41:32.424Z,13.44
2022-10-19T14:43:34.924Z,13.42
2022-10-19T14:45:36.469Z,13.43
2022-10-19T14:47:50.961Z,13.30
2022-10-19T14:49:52.682Z,13.25
2022-10-19T14:51:58.617Z,13.34
2022-10-19T14:54:05.795Z,13.23
2022-10-19T14:56:14.241Z,13.26
2022-10-19T14:58:19.110Z,13.18
2022-10-19T15:00:23.117Z,13.25
2022-10-19T15:02:28.865Z,13.23
2022-10-19T15:04:34.614Z,13.13
2022-10-19T15:06:37.882Z,13.11
2022-10-19T15:08:42.281Z,13.10
2022-10-19T15:10:46.925Z,13.11
2022-10-19T15:12:49.551Z,13.00
2022-10-19T15:14:51.123Z,13.03
2022-10-19T15:16:54.159Z,13.00
2022-10-19T15:18:55.997Z,12.95
2022-10-19T15:21:12.301Z,12.91
2022-10-19T15:23:37.142Z,12.79
2022-10-19T15:25:38.707Z,12.76
2022-10-19T15:27:42.254Z,12.76
2022-10-19T15:29:55.033Z,12.62
2022-10-19T15:32:12.043Z,12.62
2022-10-19T15:34:24.466Z,12.59
2022-10-19T15:36:28.673Z,12.52
2022-10-19T15:38:33.047Z,12.55
2022-10-19T15:40:37.788Z,12.53
2022-10-19T15:42:41.155Z,12.53
2022-10-19T15:44:44.014Z,12.51
2022-10-19T15:47:15.150Z,12.48
2022-10-19T15:49:51.502Z,12.52
2022-10-19T15:51:54.397Z,12.57
2022-10-19T15:53:58.416Z,12.52
2022-10-19T15:58:09.803Z,12.41
2022-10-19T16:00:13.722Z,12.36
2022-10-19T16:02:15.415Z,12.42
2022-10-19T16:04:17.198Z,12.45
2022-10-19T16:06:20.032Z,12.39
2022-10-19T16:08:22.911Z,12.40
2022-10-19T16:10:26.484Z,12.45
2022-10-19T16:12:28.023Z,12.40
2022-10-19T16:14:31.940Z,12.49
2022-10-19T16:16:37.403Z,12.32
2022-10-19T16:18:38.892Z,12.34
2022-10-19T16:20:40.438Z,12.29
2022-10-19T16:22:42.225Z,12.39
2022-10-19T16:24:45.074Z,12.44
2022-10-19T16:26:46.681Z,12.30
2022-10-19T16:28:48.759Z,12.19
2022-10-19T16:30:52.404Z,11.99
2022-10-19T16:32:54.301Z,12.04
2022-10-19T16:34:55.801Z,12.05
2022-10-19T16:36:57.549Z,12.04
2022-10-19T16:39:01.849Z,11.87
2022-10-19T16:41:07.397Z,11.73
2022-10-19T16:43:08.947Z,11.74
2022-10-19T16:45:11.391Z,11.78
2022-10-19T16:47:12.965Z,11.89
2022-10-19T16:49:14.497Z,11.72
2022-10-19T16:51:23.948Z,11.70
2022-10-19T16:53:25.529Z,11.78
2022-10-19T16:55:28.542Z,11.67
2022-10-19T16:57:31.424Z,11.51
2022-10-19T16:59:32.904Z,11.35
2022-10-19T17:01:34.991Z,11.36
2022-10-19T17:03:36.744Z,11.31
2022-10-19T17:05:38.350Z,11.35
2022-10-19T17:07:39.836Z,11.24
2022-10-19T17:09:42.638Z,11.14
2022-10-19T17:11:44.698Z,11.16
2022-10-19T17:13:49.880Z,11.13
2022-10-19T17:15:53.873Z,11.12
2022-10-19T17:17:55.479Z,11.06
2022-10-19T17:19:57.017Z,11.04
2022-10-19T17:21:58.600Z,11.00
2022-10-19T17:24:02.315Z,10.93
2022-10-19T17:26:04.815Z,10.92
2022-10-19T17:28:06.454Z,10.90
2022-10-19T17:30:12.042Z,11.02
2022-10-19T17:32:13.579Z,10.91
2022-10-19T17:34:15.585Z,10.87
2022-10-19T17:36:19.682Z,10.81
2022-10-19T17:38:21.238Z,10.76
2022-10-19T17:40:22.739Z,10.74
2022-10-19T17:42:24.267Z,10.71
2022-10-19T17:44:25.751Z,10.65
2022-10-19T17:46:31.068Z,10.62
2022-10-19T17:48:32.713Z,10.56
2022-10-19T17:50:34.200Z,10.53
2022-10-19T17:52:35.957Z,10.51
2022-10-19T17:54:48.561Z,10.49
2022-10-19T17:56:59.380Z,10.40
2022-10-19T17:59:01.045Z,10.34
2022-10-19T18:01:06.247Z,10.51
2022-10-19T18:03:09.179Z,10.63
2022-10-19T18:05:10.935Z,10.53
2022-10-19T18:07:12.395Z,10.27
2022-10-19T18:09:13.945Z,10.40
2022-10-19T18:11:17.767Z,10.37
2022-10-19T18:13:19.240Z,10.41
2022-10-19T18:15:20.711Z,10.32
2022-10-19T18:17:25.449Z,10.49
2022-10-19T18:19:30.643Z,10.61
2022-10-19T18:21:34.545Z,10.59
2022-10-19T18:23:36.390Z,10.58
2022-10-19T18:25:53.518Z,10.56
2022-10-19T18:27:55.928Z,10.50
2022-10-19T18:29:57.580Z,10.52
2022-10-19T18:31:59.116Z,10.41
2022-10-19T18:34:02.543Z,10.37
2022-10-19T18:36:07.442Z,10.29
2022-10-19T18:38:09.094Z,10.40
2022-10-19T18:40:11.154Z,10.44
2022-10-19T18:42:12.706Z,10.39
2022-10-19T18:44:14.213Z,10.26
2022-10-19T18:46:18.041Z,10.18
2022-10-19T18:48:19.828Z,10.14
2022-10-19T18:50:21.342Z,10.15
2022-10-19T18:52:24.137Z,10.00
2022-10-19T18:54:26.230Z,9.70
2022-10-19T18:56:28.026Z,9.82
2022-10-19T18:58:29.841Z,9.90
2022-10-19T19:00:31.493Z,9.76
2022-10-19T19:02:46.396Z,10.07
2022-10-19T19:04:48.666Z,10.13
2022-10-19T19:06:50.341Z,10.16
2022-10-19T19:08:55.768Z,10.17
2022-10-19T19:10:57.678Z,10.13
2022-10-19T19:12:59.213Z,10.02
2022-10-19T19:15:00.833Z,10.06
2022-10-19T19:17:02.303Z,9.93
2022-10-19T19:19:04.915Z,9.80
2022-10-19T19:21:15.038Z,9.71
2022-10-19T19:23:16.707Z,9.60
2022-10-19T19:25:19.766Z,9.80
2022-10-19T19:27:21.663Z,9.75
2022-10-19T19:29:23.269Z,9.68
2022-10-19T19:31:25.124Z,9.60
2022-10-19T19:33:26.629Z,9.59
2022-10-19T19:35:28.117Z,9.54
2022-10-19T19:37:29.979Z,9.44
2022-10-19T19:39:31.527Z,9.37
2022-10-19T19:41:34.337Z,9.33
2022-10-19T19:43:37.737Z,9.27
2022-10-19T19:45:39.903Z,9.25
2022-10-19T19:47:41.440Z,9.19
2022-10-19T19:49:43.085Z,9.11
2022-10-19T19:51:44.641Z,9.05
2022-10-19T19:53:47.455Z,8.93
2022-10-19T19:55:49.683Z,8.83
2022-10-19T19:57:52.632Z,8.83
2022-10-19T19:59:54.115Z,8.81
2022-10-19T20:01:55.531Z,8.74
2022-10-19T20:03:58.893Z,8.70
2022-10-19T20:06:01.345Z,8.76
2022-10-19T20:08:03.066Z,8.72
2022-10-19T20:10:04.970Z,8.69
2022-10-19T20:12:06.407Z,8.68
2022-10-19T20:14:09.238Z,8.60
2022-10-19T20:16:13.085Z,8.60
2022-10-19T20:18:14.588Z,8.56
2022-10-19T20:20:16.878Z,8.51
2022-10-19T20:22:18.398Z,8.53
2022-10-19T20:24:19.697Z,8.40
2022-10-19T20:26:23.719Z,8.45
2022-10-19T20:28:26.403Z,8.40
2022-10-19T20:30:29.233Z,8.37
2022-10-19T20:32:30.905Z,8.39
2022-10-19T20:34:34.417Z,8.26
2022-10-19T20:36:35.922Z,8.35
2022-10-19T20:38:38.919Z,8.34
2022-10-19T20:40:40.394Z,8.31
2022-10-19T20:42:41.745Z,8.22
2022-10-19T20:44:44.327Z,8.07
2022-10-19T20:46:50.501Z,8.04
2022-10-19T20:48:52.893Z,8.05
2022-10-19T20:50:54.622Z,8.03
2022-10-19T20:52:56.077Z,8.16
2022-10-19T20:54:57.515Z,8.13
2022-10-19T20:56:59.388Z,8.15
2022-10-19T20:59:05.340Z,8.18
2022-10-19T21:01:08.513Z,8.30
2022-10-19T21:03:11.420Z,8.11
2022-10-19T21:05:14.390Z,8.01
2022-10-19T21:07:15.828Z,7.89
2022-10-19T21:09:18.151Z,7.88
2022-10-19T21:11:21.587Z,7.96
2022-10-19T21:13:23.051Z,7.97
2022-10-19T21:15:25.381Z,7.82
2022-10-19T21:17:26.931Z,7.79
2022-10-19T21:19:30.351Z,7.71
2022-10-19T21:21:33.361Z,7.55
2022-10-19T21:23:34.912Z,7.51
2022-10-19T21:25:36.386Z,7.47
2022-10-19T21:27:38.034Z,7.49
2022-10-19T21:29:39.866Z,7.41
2022-10-19T21:31:45.144Z,7.38
2022-10-19T21:33:49.798Z,7.55
2022-10-19T21:35:52.589Z,7.64
2022-10-19T21:37:54.021Z,7.70
2022-10-19T21:39:55.509Z,7.77
2022-10-19T21:41:56.967Z,7.79
2022-10-19T21:43:58.273Z,7.67
2022-10-19T21:46:01.652Z,7.60
2022-10-19T21:48:03.101Z,7.66
2022-10-19T21:50:04.845Z,7.63
2022-10-19T21:52:08.501Z,7.65
2022-10-19T21:54:13.624Z,7.54
2022-10-19T21:56:15.883Z,7.50
2022-10-19T21:58:17.756Z,7.57
2022-10-19T22:00:19.305Z,7.53
2022-10-19T22:02:20.614Z,7.46
2022-10-19T22:04:22.601Z,7.39
2022-10-19T22:06:24.634Z,7.40
2022-10-19T22:08:27.844Z,7.40
2022-10-19T22:10:29.789Z,7.37
2022-10-19T22:12:31.289Z,7.34
2022-10-19T22:14:32.651Z,7.31
2022-10-19T22:16:34.609Z,7.27
2022-10-19T22:18:36.426Z,7.24
2022-10-19T22:20:39.214Z,7.16
2022-10-19T22:22:40.754Z,7.14
2022-10-19T22:24:43.425Z,7.11
2022-10-19T22:26:46.965Z,7.10
2022-10-19T22:28:51.033Z,7.04
2022-10-19T22:30:53.362Z,6.97
2022-10-19T22:32:54.850Z,7.02
2022-10-19T22:34:56.173Z,6.92
2022-10-19T22:36:57.874Z,6.87
2022-10-19T22:38:59.407Z,6.88
2022-10-19T22:41:02.110Z,6.91
2022-10-19T22:43:06.704Z,6.89
2022-10-19T22:45:08.859Z,6.86
2022-10-19T22:47:10.342Z,6.88
2022-10-19T22:49:11.773Z,6.92
2022-10-19T22:51:13.310Z,6.85
2022-10-19T22:53:14.846Z,6.89
2022-10-19T22:55:16.393Z,6.93
2022-10-19T22:57:19.064Z,6.93
2022-10-19T22:59:20.630Z,6.95
2022-10-19T23:01:22.030Z,7.00
2022-10-19T23:03:23.673Z,7.04
2022-10-19T23:05:25.208Z,7.03
2022-10-19T23:07:26.495Z,7.01
2022-10-19T23:09:27.975Z,7.04
2022-10-19T23:11:29.383Z,7.06
2022-10-19T23:13:32.591Z,7.07
2022-10-19T23:15:34.056Z,7.04
2022-10-19T23:17:35.711Z,7.04
2022-10-19T23:19:37.317Z,7.02
2022-10-19T23:21:38.603Z,7.03
2022-10-19T23:23:40.857Z,6.98
2022-10-19T23:25:42.351Z,7.02
2022-10-19T23:27:43.647Z,7.02
2022-10-19T23:29:46.514Z,6.95
2022-10-19T23:31:48.008Z,6.95
2022-10-19T23:33:49.346Z,6.90
2022-10-19T23:35:51.004Z,6.88
2022-10-19T23:37:52.490Z,6.85
2022-10-19T23:39:53.846Z,6.72
2022-10-19T23:41:55.353Z,6.65
2022-10-19T23:43:56.667Z,6.59
2022-10-19T23:45:59.668Z,6.48
2022-10-19T23:48:01.161Z,6.43
2022-10-19T23:50:02.518Z,6.46
2022-10-19T23:52:04.223Z,6.53
2022-10-19T23:54:05.937Z,6.54
2022-10-19T23:56:09.669Z,6.51
2022-10-19T23:58:11.281Z,6.53
